Farmington, Georgia
Current Conditions -  °F | °C
As of 12:51 AM on Friday 19 Dec 2014 (Local Time) from KAHN Reporting Station
Clear Clear  
Wind Chill: 39°   Ceiling: Unl
Heat Index: 42°   Visibility: 10mi
Dew Point: 33°   Wind: 5mph
Humidity: 70%   Direction: 290°WNW
Pressure: 30.11"   Gusts: NA
Location:  33.78°N, 83.42°W
Report Text: KAHN 190551Z AUTO 29004KT 10SM CLR 06/01 A3011 RMK AO2 SLP199 T00560006 10117 20056 50000
Loading
Personal Weather Stations






























Interactive Weather Map New forecast layout! Learn more

10-Day Weather Forecast

Advertisements
Track Severe Weather on mobile